sensor_id;sensor_type;location;lat;lon;timestamp;P1;durP1;ratioP1;P2;durP2;ratioP2
35699;SDS011;21818;51.078;12.108;2023-05-07T00:01:35;7.80;;;5.35;;
35699;SDS011;21818;51.078;12.108;2023-05-07T00:04:00;9.95;;;5.13;;
35699;SDS011;21818;51.078;12.108;2023-05-07T00:06:27;8.88;;;5.43;;
35699;SDS011;21818;51.078;12.108;2023-05-07T00:08:53;10.95;;;6.00;;
35699;SDS011;21818;51.078;12.108;2023-05-07T00:11:19;7.90;;;4.75;;
35699;SDS011;21818;51.078;12.108;2023-05-07T00:13:45;7.85;;;5.15;;
35699;SDS011;21818;51.078;12.108;2023-05-07T00:16:11;9.10;;;4.90;;
35699;SDS011;21818;51.078;12.108;2023-05-07T00:18:36;9.57;;;4.85;;
35699;SDS011;21818;51.078;12.108;2023-05-07T00:21:02;8.57;;;4.68;;
35699;SDS011;21818;51.078;12.108;2023-05-07T00:23:27;8.52;;;4.75;;
35699;SDS011;21818;51.078;12.108;2023-05-07T00:25:53;9.25;;;5.40;;
35699;SDS011;21818;51.078;12.108;2023-05-07T00:28:18;8.70;;;5.35;;
35699;SDS011;21818;51.078;12.108;2023-05-07T00:30:44;7.55;;;5.10;;
35699;SDS011;21818;51.078;12.108;2023-05-07T00:33:09;7.93;;;5.45;;
35699;SDS011;21818;51.078;12.108;2023-05-07T00:35:35;6.43;;;4.20;;
35699;SDS011;21818;51.078;12.108;2023-05-07T00:38:01;6.88;;;4.30;;
35699;SDS011;21818;51.078;12.108;2023-05-07T00:40:26;7.15;;;4.80;;
35699;SDS011;21818;51.078;12.108;2023-05-07T00:42:52;6.60;;;4.30;;
35699;SDS011;21818;51.078;12.108;2023-05-07T00:45:22;8.45;;;4.20;;
35699;SDS011;21818;51.078;12.108;2023-05-07T00:47:54;10.35;;;5.10;;
35699;SDS011;21818;51.078;12.108;2023-05-07T00:50:24;5.55;;;4.07;;
35699;SDS011;21818;51.078;12.108;2023-05-07T00:52:50;6.72;;;4.35;;
35699;SDS011;21818;51.078;12.108;2023-05-07T00:55:16;6.13;;;4.18;;
35699;SDS011;21818;51.078;12.108;2023-05-07T00:57:42;6.65;;;4.32;;
35699;SDS011;21818;51.078;12.108;2023-05-07T01:00:09;12.68;;;4.50;;
35699;SDS011;21818;51.078;12.108;2023-05-07T01:02:37;10.55;;;4.43;;
35699;SDS011;21818;51.078;12.108;2023-05-07T01:05:04;6.40;;;4.40;;
35699;SDS011;21818;51.078;12.108;2023-05-07T01:07:31;6.88;;;4.32;;
35699;SDS011;21818;51.078;12.108;2023-05-07T01:09:58;6.50;;;4.72;;
35699;SDS011;21818;51.078;12.108;2023-05-07T01:12:24;9.30;;;4.95;;
35699;SDS011;21818;51.078;12.108;2023-05-07T01:14:51;8.00;;;5.10;;
35699;SDS011;21818;51.078;12.108;2023-05-07T01:17:17;8.68;;;5.57;;
35699;SDS011;21818;51.078;12.108;2023-05-07T01:19:42;6.93;;;5.47;;
35699;SDS011;21818;51.078;12.108;2023-05-07T01:22:09;8.68;;;5.85;;
35699;SDS011;21818;51.078;12.108;2023-05-07T01:24:39;8.43;;;5.93;;
35699;SDS011;21818;51.078;12.108;2023-05-07T01:27:06;9.18;;;6.30;;
35699;SDS011;21818;51.078;12.108;2023-05-07T01:29:31;8.82;;;5.97;;
35699;SDS011;21818;51.078;12.108;2023-05-07T01:31:58;8.52;;;5.70;;
35699;SDS011;21818;51.078;12.108;2023-05-07T01:34:25;9.88;;;6.30;;
35699;SDS011;21818;51.078;12.108;2023-05-07T01:36:55;9.18;;;6.47;;
35699;SDS011;21818;51.078;12.108;2023-05-07T01:39:24;10.80;;;6.93;;
35699;SDS011;21818;51.078;12.108;2023-05-07T01:41:51;12.07;;;6.97;;
35699;SDS011;21818;51.078;12.108;2023-05-07T01:44:20;10.85;;;7.13;;
35699;SDS011;21818;51.078;12.108;2023-05-07T01:46:46;11.32;;;6.60;;
35699;SDS011;21818;51.078;12.108;2023-05-07T01:49:13;12.00;;;6.45;;
35699;SDS011;21818;51.078;12.108;2023-05-07T01:51:39;10.00;;;7.18;;
35699;SDS011;21818;51.078;12.108;2023-05-07T01:54:05;12.40;;;6.03;;
35699;SDS011;21818;51.078;12.108;2023-05-07T01:56:31;12.07;;;6.30;;
35699;SDS011;21818;51.078;12.108;2023-05-07T01:58:57;10.35;;;6.90;;
35699;SDS011;21818;51.078;12.108;2023-05-07T02:01:22;12.55;;;7.43;;
35699;SDS011;21818;51.078;12.108;2023-05-07T02:03:48;9.85;;;7.35;;
35699;SDS011;21818;51.078;12.108;2023-05-07T02:06:14;10.02;;;7.15;;
35699;SDS011;21818;51.078;12.108;2023-05-07T02:08:40;10.00;;;6.80;;
35699;SDS011;21818;51.078;12.108;2023-05-07T02:11:05;8.52;;;6.28;;
35699;SDS011;21818;51.078;12.108;2023-05-07T02:13:31;11.65;;;6.80;;
35699;SDS011;21818;51.078;12.108;2023-05-07T02:15:58;10.43;;;6.88;;
35699;SDS011;21818;51.078;12.108;2023-05-07T02:18:24;11.77;;;6.68;;
35699;SDS011;21818;51.078;12.108;2023-05-07T02:20:49;9.95;;;6.43;;
35699;SDS011;21818;51.078;12.108;2023-05-07T02:23:15;10.10;;;6.85;;
35699;SDS011;21818;51.078;12.108;2023-05-07T02:25:40;10.68;;;6.40;;
35699;SDS011;21818;51.078;12.108;2023-05-07T02:28:06;12.77;;;6.90;;
35699;SDS011;21818;51.078;12.108;2023-05-07T02:30:32;9.35;;;6.32;;
35699;SDS011;21818;51.078;12.108;2023-05-07T02:32:58;9.25;;;6.32;;
35699;SDS011;21818;51.078;12.108;2023-05-07T02:35:26;10.85;;;5.93;;
35699;SDS011;21818;51.078;12.108;2023-05-07T02:37:52;9.35;;;5.75;;
35699;SDS011;21818;51.078;12.108;2023-05-07T02:40:17;9.82;;;6.13;;
35699;SDS011;21818;51.078;12.108;2023-05-07T02:42:43;11.25;;;6.70;;
35699;SDS011;21818;51.078;12.108;2023-05-07T02:45:08;8.88;;;5.55;;
35699;SDS011;21818;51.078;12.108;2023-05-07T02:47:34;7.90;;;5.50;;
35699;SDS011;21818;51.078;12.108;2023-05-07T02:50:00;8.52;;;5.65;;
35699;SDS011;21818;51.078;12.108;2023-05-07T02:52:26;8.30;;;5.28;;
35699;SDS011;21818;51.078;12.108;2023-05-07T02:54:51;9.82;;;5.80;;
35699;SDS011;21818;51.078;12.108;2023-05-07T02:57:17;10.57;;;6.03;;
35699;SDS011;21818;51.078;12.108;2023-05-07T02:59:42;9.43;;;6.72;;
35699;SDS011;21818;51.078;12.108;2023-05-07T03:02:08;9.07;;;5.65;;
35699;SDS011;21818;51.078;12.108;2023-05-07T03:04:34;9.23;;;5.85;;
35699;SDS011;21818;51.078;12.108;2023-05-07T03:07:00;10.80;;;6.10;;
35699;SDS011;21818;51.078;12.108;2023-05-07T03:09:25;9.05;;;5.60;;
35699;SDS011;21818;51.078;12.108;2023-05-07T03:11:51;11.88;;;6.15;;
35699;SDS011;21818;51.078;12.108;2023-05-07T03:14:16;9.55;;;6.13;;
35699;SDS011;21818;51.078;12.108;2023-05-07T03:16:42;9.85;;;6.13;;
35699;SDS011;21818;51.078;12.108;2023-05-07T03:19:08;10.88;;;6.45;;
35699;SDS011;21818;51.078;12.108;2023-05-07T03:21:33;9.07;;;6.03;;
35699;SDS011;21818;51.078;12.108;2023-05-07T03:23:59;10.80;;;5.55;;
35699;SDS011;21818;51.078;12.108;2023-05-07T03:26:25;8.90;;;6.00;;
35699;SDS011;21818;51.078;12.108;2023-05-07T03:28:51;9.35;;;6.07;;
35699;SDS011;21818;51.078;12.108;2023-05-07T03:31:17;9.95;;;6.18;;
35699;SDS011;21818;51.078;12.108;2023-05-07T03:33:53;10.98;;;6.85;;
35699;SDS011;21818;51.078;12.108;2023-05-07T03:36:20;9.15;;;6.70;;
35699;SDS011;21818;51.078;12.108;2023-05-07T03:38:46;9.63;;;6.80;;
35699;SDS011;21818;51.078;12.108;2023-05-07T03:41:11;11.90;;;6.47;;
35699;SDS011;21818;51.078;12.108;2023-05-07T03:43:37;10.75;;;6.95;;
35699;SDS011;21818;51.078;12.108;2023-05-07T03:46:02;12.20;;;7.10;;
35699;SDS011;21818;51.078;12.108;2023-05-07T03:48:28;8.68;;;5.80;;
35699;SDS011;21818;51.078;12.108;2023-05-07T03:50:53;12.15;;;7.22;;
35699;SDS011;21818;51.078;12.108;2023-05-07T03:53:19;12.00;;;7.05;;
35699;SDS011;21818;51.078;12.108;2023-05-07T03:55:45;12.27;;;7.28;;
35699;SDS011;21818;51.078;12.108;2023-05-07T03:58:10;10.38;;;6.85;;
35699;SDS011;21818;51.078;12.108;2023-05-07T04:00:36;11.13;;;7.07;;
35699;SDS011;21818;51.078;12.108;2023-05-07T04:03:04;11.73;;;7.15;;
35699;SDS011;21818;51.078;12.108;2023-05-07T04:05:30;13.15;;;8.02;;
35699;SDS011;21818;51.078;12.108;2023-05-07T04:07:57;12.55;;;7.78;;
35699;SDS011;21818;51.078;12.108;2023-05-07T04:10:23;12.65;;;7.32;;
35699;SDS011;21818;51.078;12.108;2023-05-07T04:12:49;12.02;;;7.63;;
35699;SDS011;21818;51.078;12.108;2023-05-07T04:15:14;12.73;;;7.63;;
35699;SDS011;21818;51.078;12.108;2023-05-07T04:17:40;13.68;;;7.93;;
35699;SDS011;21818;51.078;12.108;2023-05-07T04:20:08;13.20;;;8.05;;
35699;SDS011;21818;51.078;12.108;2023-05-07T04:22:35;12.38;;;7.57;;
35699;SDS011;21818;51.078;12.108;2023-05-07T04:25:01;14.05;;;8.05;;
35699;SDS011;21818;51.078;12.108;2023-05-07T04:27:27;14.63;;;8.50;;
35699;SDS011;21818;51.078;12.108;2023-05-07T04:29:53;12.98;;;7.80;;
35699;SDS011;21818;51.078;12.108;2023-05-07T04:32:20;11.30;;;7.70;;
35699;SDS011;21818;51.078;12.108;2023-05-07T04:34:46;14.98;;;8.43;;
35699;SDS011;21818;51.078;12.108;2023-05-07T04:37:11;14.63;;;8.43;;
35699;SDS011;21818;51.078;12.108;2023-05-07T04:39:37;13.55;;;8.55;;
35699;SDS011;21818;51.078;12.108;2023-05-07T04:42:03;12.60;;;8.38;;
35699;SDS011;21818;51.078;12.108;2023-05-07T04:44:28;15.27;;;8.55;;
35699;SDS011;21818;51.078;12.108;2023-05-07T04:46:56;11.98;;;8.43;;
35699;SDS011;21818;51.078;12.108;2023-05-07T04:49:21;14.60;;;8.13;;
35699;SDS011;21818;51.078;12.108;2023-05-07T04:51:47;14.13;;;8.65;;
35699;SDS011;21818;51.078;12.108;2023-05-07T04:54:13;12.63;;;8.60;;
35699;SDS011;21818;51.078;12.108;2023-05-07T04:56:38;13.27;;;8.35;;
35699;SDS011;21818;51.078;12.108;2023-05-07T04:59:04;13.63;;;8.32;;
35699;SDS011;21818;51.078;12.108;2023-05-07T05:01:30;12.35;;;7.90;;
35699;SDS011;21818;51.078;12.108;2023-05-07T05:03:56;13.18;;;8.73;;
35699;SDS011;21818;51.078;12.108;2023-05-07T05:06:21;16.55;;;8.70;;
35699;SDS011;21818;51.078;12.108;2023-05-07T05:08:47;14.38;;;8.57;;
35699;SDS011;21818;51.078;12.108;2023-05-07T05:11:13;14.52;;;8.77;;
35699;SDS011;21818;51.078;12.108;2023-05-07T05:13:38;12.30;;;8.45;;
35699;SDS011;21818;51.078;12.108;2023-05-07T05:16:04;13.13;;;7.80;;
35699;SDS011;21818;51.078;12.108;2023-05-07T05:18:31;13.82;;;8.27;;
35699;SDS011;21818;51.078;12.108;2023-05-07T05:20:56;14.68;;;8.35;;
35699;SDS011;21818;51.078;12.108;2023-05-07T05:23:22;10.98;;;7.85;;
35699;SDS011;21818;51.078;12.108;2023-05-07T05:25:47;13.85;;;8.55;;
35699;SDS011;21818;51.078;12.108;2023-05-07T05:28:13;12.52;;;8.05;;
35699;SDS011;21818;51.078;12.108;2023-05-07T05:30:38;14.48;;;7.93;;
35699;SDS011;21818;51.078;12.108;2023-05-07T05:33:04;13.38;;;7.80;;
35699;SDS011;21818;51.078;12.108;2023-05-07T05:35:30;15.88;;;7.85;;
35699;SDS011;21818;51.078;12.108;2023-05-07T05:37:55;13.40;;;8.27;;
35699;SDS011;21818;51.078;12.108;2023-05-07T05:40:21;16.35;;;8.93;;
35699;SDS011;21818;51.078;12.108;2023-05-07T05:42:46;15.00;;;7.57;;
35699;SDS011;21818;51.078;12.108;2023-05-07T05:45:12;12.32;;;7.40;;
35699;SDS011;21818;51.078;12.108;2023-05-07T05:47:38;11.70;;;7.38;;
35699;SDS011;21818;51.078;12.108;2023-05-07T05:50:05;9.52;;;6.65;;
35699;SDS011;21818;51.078;12.108;2023-05-07T05:52:31;10.63;;;6.90;;
35699;SDS011;21818;51.078;12.108;2023-05-07T05:54:56;9.25;;;6.57;;
35699;SDS011;21818;51.078;12.108;2023-05-07T05:57:22;13.18;;;7.28;;
35699;SDS011;21818;51.078;12.108;2023-05-07T05:59:48;15.98;;;7.47;;
35699;SDS011;21818;51.078;12.108;2023-05-07T06:02:13;17.38;;;7.03;;
35699;SDS011;21818;51.078;12.108;2023-05-07T06:04:39;12.57;;;6.90;;
35699;SDS011;21818;51.078;12.108;2023-05-07T06:07:05;9.55;;;6.95;;
35699;SDS011;21818;51.078;12.108;2023-05-07T06:09:30;17.90;;;7.40;;
35699;SDS011;21818;51.078;12.108;2023-05-07T06:11:56;10.88;;;6.93;;
35699;SDS011;21818;51.078;12.108;2023-05-07T06:14:21;11.60;;;7.20;;
35699;SDS011;21818;51.078;12.108;2023-05-07T06:16:47;16.52;;;7.53;;
35699;SDS011;21818;51.078;12.108;2023-05-07T06:19:12;14.05;;;6.38;;
35699;SDS011;21818;51.078;12.108;2023-05-07T06:21:38;14.07;;;7.60;;
35699;SDS011;21818;51.078;12.108;2023-05-07T06:24:05;12.35;;;6.82;;
35699;SDS011;21818;51.078;12.108;2023-05-07T06:26:30;11.50;;;7.70;;
35699;SDS011;21818;51.078;12.108;2023-05-07T06:28:56;10.10;;;6.47;;
35699;SDS011;21818;51.078;12.108;2023-05-07T06:31:22;12.43;;;6.53;;
35699;SDS011;21818;51.078;12.108;2023-05-07T06:33:47;10.10;;;6.68;;
35699;SDS011;21818;51.078;12.108;2023-05-07T06:36:13;11.63;;;6.70;;
35699;SDS011;21818;51.078;12.108;2023-05-07T06:38:39;9.60;;;6.47;;
35699;SDS011;21818;51.078;12.108;2023-05-07T06:41:08;12.48;;;7.10;;
35699;SDS011;21818;51.078;12.108;2023-05-07T06:43:33;11.20;;;6.68;;
35699;SDS011;21818;51.078;12.108;2023-05-07T06:45:59;11.23;;;6.07;;
35699;SDS011;21818;51.078;12.108;2023-05-07T06:48:24;13.70;;;6.72;;
35699;SDS011;21818;51.078;12.108;2023-05-07T06:50:50;10.57;;;6.13;;
35699;SDS011;21818;51.078;12.108;2023-05-07T06:53:15;11.30;;;6.28;;
35699;SDS011;21818;51.078;12.108;2023-05-07T06:55:41;9.98;;;6.68;;
35699;SDS011;21818;51.078;12.108;2023-05-07T06:58:06;10.48;;;6.20;;
35699;SDS011;21818;51.078;12.108;2023-05-07T07:00:32;11.38;;;7.10;;
35699;SDS011;21818;51.078;12.108;2023-05-07T07:02:58;11.70;;;6.80;;
35699;SDS011;21818;51.078;12.108;2023-05-07T07:05:24;10.90;;;7.43;;
35699;SDS011;21818;51.078;12.108;2023-05-07T07:07:50;8.63;;;5.82;;
35699;SDS011;21818;51.078;12.108;2023-05-07T07:10:20;9.93;;;6.03;;
35699;SDS011;21818;51.078;12.108;2023-05-07T07:12:49;11.32;;;5.80;;
35699;SDS011;21818;51.078;12.108;2023-05-07T07:15:15;11.95;;;6.72;;
35699;SDS011;21818;51.078;12.108;2023-05-07T07:17:41;8.82;;;5.85;;
35699;SDS011;21818;51.078;12.108;2023-05-07T07:20:07;9.65;;;6.55;;
35699;SDS011;21818;51.078;12.108;2023-05-07T07:22:33;10.32;;;5.97;;
35699;SDS011;21818;51.078;12.108;2023-05-07T07:24:59;12.48;;;6.47;;
35699;SDS011;21818;51.078;12.108;2023-05-07T07:27:24;13.15;;;6.70;;
35699;SDS011;21818;51.078;12.108;2023-05-07T07:29:50;10.85;;;6.32;;
35699;SDS011;21818;51.078;12.108;2023-05-07T07:32:16;9.77;;;6.15;;
35699;SDS011;21818;51.078;12.108;2023-05-07T07:34:41;11.30;;;5.85;;
35699;SDS011;21818;51.078;12.108;2023-05-07T07:37:07;10.45;;;5.88;;
35699;SDS011;21818;51.078;12.108;2023-05-07T07:39:33;9.52;;;6.32;;
35699;SDS011;21818;51.078;12.108;2023-05-07T07:41:58;8.10;;;5.70;;
35699;SDS011;21818;51.078;12.108;2023-05-07T07:44:25;8.55;;;5.40;;
35699;SDS011;21818;51.078;12.108;2023-05-07T07:46:50;9.68;;;5.30;;
35699;SDS011;21818;51.078;12.108;2023-05-07T07:49:16;8.50;;;5.53;;
35699;SDS011;21818;51.078;12.108;2023-05-07T07:51:42;9.10;;;5.70;;
35699;SDS011;21818;51.078;12.108;2023-05-07T07:54:07;8.88;;;5.45;;
35699;SDS011;21818;51.078;12.108;2023-05-07T07:56:33;8.30;;;5.20;;
35699;SDS011;21818;51.078;12.108;2023-05-07T07:58:59;8.77;;;5.13;;
35699;SDS011;21818;51.078;12.108;2023-05-07T08:01:25;10.15;;;5.30;;
35699;SDS011;21818;51.078;12.108;2023-05-07T08:03:51;10.98;;;5.28;;
35699;SDS011;21818;51.078;12.108;2023-05-07T08:06:17;11.23;;;6.75;;
35699;SDS011;21818;51.078;12.108;2023-05-07T08:08:42;9.27;;;4.95;;
35699;SDS011;21818;51.078;12.108;2023-05-07T08:11:08;10.48;;;6.18;;
35699;SDS011;21818;51.078;12.108;2023-05-07T08:13:34;6.88;;;4.97;;
35699;SDS011;21818;51.078;12.108;2023-05-07T08:16:00;8.30;;;5.00;;
35699;SDS011;21818;51.078;12.108;2023-05-07T08:18:25;8.05;;;4.90;;
35699;SDS011;21818;51.078;12.108;2023-05-07T08:20:53;6.63;;;4.85;;
35699;SDS011;21818;51.078;12.108;2023-05-07T08:23:19;7.63;;;5.18;;
35699;SDS011;21818;51.078;12.108;2023-05-07T08:25:44;7.45;;;4.95;;
35699;SDS011;21818;51.078;12.108;2023-05-07T08:28:10;7.60;;;5.20;;
35699;SDS011;21818;51.078;12.108;2023-05-07T08:30:35;8.20;;;4.95;;
35699;SDS011;21818;51.078;12.108;2023-05-07T08:33:01;9.38;;;5.35;;
35699;SDS011;21818;51.078;12.108;2023-05-07T08:35:26;6.75;;;4.70;;
35699;SDS011;21818;51.078;12.108;2023-05-07T08:37:53;6.20;;;4.60;;
35699;SDS011;21818;51.078;12.108;2023-05-07T08:40:18;8.00;;;4.75;;
35699;SDS011;21818;51.078;12.108;2023-05-07T08:42:45;9.63;;;4.82;;
35699;SDS011;21818;51.078;12.108;2023-05-07T08:45:14;8.05;;;4.63;;
35699;SDS011;21818;51.078;12.108;2023-05-07T08:47:42;7.47;;;4.45;;
35699;SDS011;21818;51.078;12.108;2023-05-07T08:50:10;7.32;;;4.32;;
35699;SDS011;21818;51.078;12.108;2023-05-07T08:52:36;8.55;;;4.28;;
35699;SDS011;21818;51.078;12.108;2023-05-07T08:55:02;10.27;;;4.38;;
35699;SDS011;21818;51.078;12.108;2023-05-07T08:57:28;9.57;;;4.68;;
35699;SDS011;21818;51.078;12.108;2023-05-07T08:59:54;7.90;;;4.50;;
35699;SDS011;21818;51.078;12.108;2023-05-07T09:02:20;7.40;;;4.40;;
35699;SDS011;21818;51.078;12.108;2023-05-07T09:04:45;8.10;;;4.97;;
35699;SDS011;21818;51.078;12.108;2023-05-07T09:07:11;7.07;;;4.93;;
35699;SDS011;21818;51.078;12.108;2023-05-07T09:09:37;8.88;;;4.55;;
35699;SDS011;21818;51.078;12.108;2023-05-07T09:12:02;6.15;;;4.32;;
35699;SDS011;21818;51.078;12.108;2023-05-07T09:14:29;9.27;;;4.60;;
35699;SDS011;21818;51.078;12.108;2023-05-07T09:16:55;6.68;;;4.50;;
35699;SDS011;21818;51.078;12.108;2023-05-07T09:19:22;5.90;;;4.20;;
35699;SDS011;21818;51.078;12.108;2023-05-07T09:21:49;6.35;;;4.40;;
35699;SDS011;21818;51.078;12.108;2023-05-07T09:24:17;8.05;;;4.40;;
35699;SDS011;21818;51.078;12.108;2023-05-07T09:26:42;7.82;;;4.38;;
35699;SDS011;21818;51.078;12.108;2023-05-07T09:29:09;7.57;;;4.75;;
35699;SDS011;21818;51.078;12.108;2023-05-07T09:31:36;9.52;;;4.07;;
35699;SDS011;21818;51.078;12.108;2023-05-07T09:34:04;9.90;;;5.18;;
35699;SDS011;21818;51.078;12.108;2023-05-07T09:36:31;6.72;;;4.30;;
35699;SDS011;21818;51.078;12.108;2023-05-07T09:38:59;9.43;;;5.05;;
35699;SDS011;21818;51.078;12.108;2023-05-07T09:41:25;5.93;;;4.10;;
35699;SDS011;21818;51.078;12.108;2023-05-07T09:43:54;5.85;;;3.85;;
35699;SDS011;21818;51.078;12.108;2023-05-07T09:46:20;7.68;;;4.43;;
35699;SDS011;21818;51.078;12.108;2023-05-07T09:48:55;5.57;;;3.80;;
35699;SDS011;21818;51.078;12.108;2023-05-07T09:51:28;6.80;;;4.20;;
35699;SDS011;21818;51.078;12.108;2023-05-07T09:53:55;6.38;;;4.13;;
35699;SDS011;21818;51.078;12.108;2023-05-07T09:56:22;7.80;;;4.10;;
35699;SDS011;21818;51.078;12.108;2023-05-07T09:58:48;7.00;;;4.60;;
35699;SDS011;21818;51.078;12.108;2023-05-07T10:01:16;7.20;;;4.70;;
35699;SDS011;21818;51.078;12.108;2023-05-07T10:03:44;5.28;;;3.95;;
35699;SDS011;21818;51.078;12.108;2023-05-07T10:06:10;7.07;;;4.10;;
35699;SDS011;21818;51.078;12.108;2023-05-07T10:08:38;8.77;;;4.05;;
35699;SDS011;21818;51.078;12.108;2023-05-07T10:11:04;6.22;;;3.90;;
35699;SDS011;21818;51.078;12.108;2023-05-07T10:13:31;6.65;;;3.92;;
35699;SDS011;21818;51.078;12.108;2023-05-07T10:16:01;5.93;;;4.32;;
35699;SDS011;21818;51.078;12.108;2023-05-07T10:18:28;5.60;;;3.30;;
35699;SDS011;21818;51.078;12.108;2023-05-07T10:20:58;6.10;;;3.67;;
35699;SDS011;21818;51.078;12.108;2023-05-07T10:23:48;5.75;;;3.95;;
35699;SDS011;21818;51.078;12.108;2023-05-07T10:26:18;4.80;;;3.42;;
35699;SDS011;21818;51.078;12.108;2023-05-07T10:28:49;5.53;;;3.53;;
35699;SDS011;21818;51.078;12.108;2023-05-07T10:31:26;6.20;;;3.97;;
35699;SDS011;21818;51.078;12.108;2023-05-07T10:34:15;4.63;;;3.50;;
35699;SDS011;21818;51.078;12.108;2023-05-07T10:36:44;4.65;;;3.50;;
35699;SDS011;21818;51.078;12.108;2023-05-07T10:39:10;5.10;;;3.40;;
35699;SDS011;21818;51.078;12.108;2023-05-07T10:41:36;5.03;;;3.38;;
35699;SDS011;21818;51.078;12.108;2023-05-07T10:44:01;5.40;;;3.30;;
35699;SDS011;21818;51.078;12.108;2023-05-07T10:46:27;6.15;;;3.28;;
35699;SDS011;21818;51.078;12.108;2023-05-07T10:51:25;6.18;;;3.88;;
35699;SDS011;21818;51.078;12.108;2023-05-07T10:54:25;6.93;;;4.03;;
35699;SDS011;21818;51.078;12.108;2023-05-07T10:56:44;4.93;;;3.35;;
35699;SDS011;21818;51.078;12.108;2023-05-07T11:04:22;7.38;;;3.78;;
35699;SDS011;21818;51.078;12.108;2023-05-07T11:15:05;6.00;;;3.25;;
35699;SDS011;21818;51.078;12.108;2023-05-07T11:17:35;5.70;;;3.60;;
35699;SDS011;21818;51.078;12.108;2023-05-07T11:20:20;5.05;;;3.30;;
35699;SDS011;21818;51.078;12.108;2023-05-07T11:22:46;6.43;;;3.58;;
35699;SDS011;21818;51.078;12.108;2023-05-07T11:25:17;4.45;;;3.50;;
35699;SDS011;21818;51.078;12.108;2023-05-07T11:27:44;16.02;;;4.10;;
35699;SDS011;21818;51.078;12.108;2023-05-07T11:30:10;6.35;;;3.65;;
35699;SDS011;21818;51.078;12.108;2023-05-07T11:32:42;7.18;;;3.60;;
35699;SDS011;21818;51.078;12.108;2023-05-07T11:35:08;6.03;;;3.40;;
35699;SDS011;21818;51.078;12.108;2023-05-07T11:37:33;4.97;;;3.63;;
35699;SDS011;21818;51.078;12.108;2023-05-07T11:40:08;7.57;;;3.42;;
35699;SDS011;21818;51.078;12.108;2023-05-07T11:42:39;5.22;;;3.53;;
35699;SDS011;21818;51.078;12.108;2023-05-07T11:45:07;5.93;;;3.53;;
35699;SDS011;21818;51.078;12.108;2023-05-07T11:47:33;4.55;;;3.00;;
35699;SDS011;21818;51.078;12.108;2023-05-07T11:50:03;5.80;;;3.53;;
35699;SDS011;21818;51.078;12.108;2023-05-07T11:52:31;3.88;;;2.67;;
35699;SDS011;21818;51.078;12.108;2023-05-07T11:54:58;8.30;;;3.63;;
35699;SDS011;21818;51.078;12.108;2023-05-07T11:57:25;4.43;;;3.35;;
35699;SDS011;21818;51.078;12.108;2023-05-07T11:59:57;3.13;;;2.58;;
35699;SDS011;21818;51.078;12.108;2023-05-07T12:02:23;5.65;;;3.35;;
35699;SDS011;21818;51.078;12.108;2023-05-07T12:04:53;3.53;;;2.50;;
35699;SDS011;21818;51.078;12.108;2023-05-07T12:07:19;4.10;;;2.70;;
35699;SDS011;21818;51.078;12.108;2023-05-07T12:09:45;4.68;;;2.97;;
35699;SDS011;21818;51.078;12.108;2023-05-07T12:12:11;5.57;;;2.35;;
35699;SDS011;21818;51.078;12.108;2023-05-07T12:14:39;3.53;;;2.40;;
35699;SDS011;21818;51.078;12.108;2023-05-07T12:17:07;3.85;;;2.75;;
35699;SDS011;21818;51.078;12.108;2023-05-07T12:19:36;3.70;;;2.60;;
35699;SDS011;21818;51.078;12.108;2023-05-07T12:22:03;4.45;;;2.70;;
35699;SDS011;21818;51.078;12.108;2023-05-07T12:24:29;4.18;;;2.80;;
35699;SDS011;21818;51.078;12.108;2023-05-07T12:27:06;5.18;;;2.60;;
35699;SDS011;21818;51.078;12.108;2023-05-07T12:29:32;3.83;;;2.55;;
35699;SDS011;21818;51.078;12.108;2023-05-07T12:31:57;3.15;;;2.38;;
35699;SDS011;21818;51.078;12.108;2023-05-07T12:34:23;5.82;;;2.72;;
35699;SDS011;21818;51.078;12.108;2023-05-07T12:36:49;3.13;;;2.13;;
35699;SDS011;21818;51.078;12.108;2023-05-07T12:39:14;2.88;;;2.33;;
35699;SDS011;21818;51.078;12.108;2023-05-07T12:41:53;3.47;;;2.40;;
35699;SDS011;21818;51.078;12.108;2023-05-07T12:44:21;3.10;;;2.08;;
35699;SDS011;21818;51.078;12.108;2023-05-07T12:46:47;2.88;;;2.05;;
35699;SDS011;21818;51.078;12.108;2023-05-07T12:49:13;2.97;;;2.10;;
35699;SDS011;21818;51.078;12.108;2023-05-07T12:51:38;2.80;;;2.20;;
35699;SDS011;21818;51.078;12.108;2023-05-07T12:54:04;3.95;;;2.15;;
35699;SDS011;21818;51.078;12.108;2023-05-07T12:56:35;3.20;;;2.60;;
35699;SDS011;21818;51.078;12.108;2023-05-07T12:59:01;5.20;;;2.40;;
35699;SDS011;21818;51.078;12.108;2023-05-07T13:01:30;3.20;;;2.40;;
35699;SDS011;21818;51.078;12.108;2023-05-07T13:03:58;3.03;;;2.05;;
35699;SDS011;21818;51.078;12.108;2023-05-07T13:06:26;3.17;;;2.42;;
35699;SDS011;21818;51.078;12.108;2023-05-07T13:08:51;7.30;;;2.38;;
35699;SDS011;21818;51.078;12.108;2023-05-07T13:11:17;5.88;;;2.75;;
35699;SDS011;21818;51.078;12.108;2023-05-07T13:13:42;6.35;;;2.72;;
35699;SDS011;21818;51.078;12.108;2023-05-07T13:16:09;6.78;;;3.00;;
35699;SDS011;21818;51.078;12.108;2023-05-07T13:18:36;3.35;;;2.67;;
35699;SDS011;21818;51.078;12.108;2023-05-07T13:21:02;4.88;;;3.10;;
35699;SDS011;21818;51.078;12.108;2023-05-07T13:23:28;5.65;;;3.00;;
35699;SDS011;21818;51.078;12.108;2023-05-07T13:25:54;3.97;;;2.90;;
35699;SDS011;21818;51.078;12.108;2023-05-07T13:28:20;4.10;;;2.78;;
35699;SDS011;21818;51.078;12.108;2023-05-07T13:30:47;3.55;;;2.90;;
35699;SDS011;21818;51.078;12.108;2023-05-07T13:33:13;3.60;;;2.70;;
35699;SDS011;21818;51.078;12.108;2023-05-07T13:35:38;3.22;;;2.90;;
35699;SDS011;21818;51.078;12.108;2023-05-07T13:38:04;3.65;;;2.67;;
35699;SDS011;21818;51.078;12.108;2023-05-07T13:40:30;4.05;;;3.10;;
35699;SDS011;21818;51.078;12.108;2023-05-07T13:42:59;4.05;;;2.88;;
35699;SDS011;21818;51.078;12.108;2023-05-07T13:47:54;3.97;;;2.95;;
35699;SDS011;21818;51.078;12.108;2023-05-07T13:50:20;3.58;;;2.50;;
35699;SDS011;21818;51.078;12.108;2023-05-07T13:52:45;3.92;;;2.75;;
35699;SDS011;21818;51.078;12.108;2023-05-07T13:55:16;3.65;;;2.80;;
35699;SDS011;21818;51.078;12.108;2023-05-07T13:57:42;8.02;;;3.45;;
35699;SDS011;21818;51.078;12.108;2023-05-07T14:00:08;5.32;;;2.88;;
35699;SDS011;21818;51.078;12.108;2023-05-07T14:02:34;2.60;;;2.15;;
35699;SDS011;21818;51.078;12.108;2023-05-07T14:05:00;3.25;;;2.95;;
35699;SDS011;21818;51.078;12.108;2023-05-07T14:07:25;4.38;;;3.10;;
35699;SDS011;21818;51.078;12.108;2023-05-07T14:09:51;5.00;;;3.00;;
35699;SDS011;21818;51.078;12.108;2023-05-07T14:12:17;4.90;;;3.05;;
35699;SDS011;21818;51.078;12.108;2023-05-07T14:14:42;5.15;;;3.38;;
35699;SDS011;21818;51.078;12.108;2023-05-07T14:17:08;3.90;;;2.60;;
35699;SDS011;21818;51.078;12.108;2023-05-07T14:19:33;3.65;;;2.95;;
35699;SDS011;21818;51.078;12.108;2023-05-07T14:21:59;5.25;;;2.50;;
35699;SDS011;21818;51.078;12.108;2023-05-07T14:24:24;3.88;;;2.70;;
35699;SDS011;21818;51.078;12.108;2023-05-07T14:26:50;2.85;;;2.30;;
35699;SDS011;21818;51.078;12.108;2023-05-07T14:29:16;4.80;;;2.70;;
35699;SDS011;21818;51.078;12.108;2023-05-07T14:31:43;3.78;;;2.90;;
35699;SDS011;21818;51.078;12.108;2023-05-07T14:34:10;5.15;;;2.83;;
35699;SDS011;21818;51.078;12.108;2023-05-07T14:36:35;3.55;;;2.70;;
35699;SDS011;21818;51.078;12.108;2023-05-07T14:39:01;7.20;;;3.30;;
35699;SDS011;21818;51.078;12.108;2023-05-07T14:41:27;3.80;;;2.97;;
35699;SDS011;21818;51.078;12.108;2023-05-07T14:43:52;4.93;;;3.38;;
35699;SDS011;21818;51.078;12.108;2023-05-07T14:46:18;3.30;;;2.55;;